Time;durP1;ratioP1;P1;durP2;ratioP2;P2;SDS_P1;SDS_P2;PMS_P1;PMS_P2;Temp;Humidity;BMP_temperature;BMP_pressure;BME280_temperature;BME280_humidity;BME280_pressure;Samples;Min_cycle;Max_cycle;Signal;HPM_P1;HPM_P2
2022/05/15 00:02:17;;;;;;;6.13;4.95;;;;;;;14.73;71.07;94986.88;5127300;27;20046;-70
2022/05/15 00:04:42;;;;;;;4.63;4.20;;;;;;;14.70;70.86;94975.91;5114107;27;20019;-69
2022/05/15 00:07:08;;;;;;;5.38;4.47;;;;;;;14.70;70.83;94981.94;5096405;28;20039;-69
2022/05/15 00:09:33;;;;;;;5.00;4.25;;;;;;;14.71;70.42;94977.56;5113232;28;20072;-70
2022/05/15 00:11:59;;;;;;;9.20;4.70;;;;;;;14.77;70.63;94984.81;5121902;27;20039;-69
2022/05/15 00:14:25;;;;;;;6.28;4.55;;;;;;;14.78;70.33;94983.00;5132093;27;20019;-69
2022/05/15 00:16:50;;;;;;;5.65;4.50;;;;;;;14.74;70.15;94975.47;5132726;27;20034;-69
2022/05/15 00:19:16;;;;;;;5.38;4.68;;;;;;;14.73;69.72;94989.50;5122206;27;20054;-69
2022/05/15 00:21:41;;;;;;;5.50;4.25;;;;;;;14.66;69.58;94985.84;5124465;27;20032;-69
2022/05/15 00:24:07;;;;;;;5.57;4.10;;;;;;;14.59;69.19;94982.16;5114239;27;20076;-69
2022/05/15 00:26:33;;;;;;;6.63;4.55;;;;;;;14.50;69.28;94983.03;5124481;27;20026;-70
2022/05/15 00:28:58;;;;;;;7.13;4.90;;;;;;;14.49;68.58;94982.19;5125329;27;20031;-69
2022/05/15 00:31:24;;;;;;;6.90;4.60;;;;;;;14.48;68.60;94992.78;5130556;27;20076;-69
2022/05/15 00:33:50;;;;;;;5.18;4.43;;;;;;;14.43;69.15;94981.94;5129030;27;20176;-69
2022/05/15 00:36:15;;;;;;;9.35;4.60;;;;;;;14.42;68.46;94993.38;5132956;27;20023;-69
2022/05/15 00:38:41;;;;;;;4.57;4.10;;;;;;;14.42;68.69;94990.78;5114593;27;20450;-70
2022/05/15 00:41:07;;;;;;;4.88;4.38;;;;;;;14.35;68.75;94990.53;5132975;27;20038;-69
2022/05/15 00:43:43;;;;;;;4.82;4.00;;;;;;;14.35;68.66;94990.53;5119475;27;20085;-69
2022/05/15 00:46:17;;;;;;;6.30;4.47;;;;;;;14.31;68.50;94986.56;5106917;28;20040;-69
2022/05/15 00:48:42;;;;;;;4.88;4.00;;;;;;;14.24;68.78;94988.94;5131884;27;20047;-69
2022/05/15 00:51:22;;;;;;;4.93;4.45;;;;;;;14.17;68.73;94979.22;5133869;27;20548;-69
2022/05/15 00:53:49;;;;;;;4.53;4.00;;;;;;;14.20;68.73;94984.94;5129562;27;20047;-69
2022/05/15 00:56:14;;;;;;;7.47;4.43;;;;;;;14.16;67.88;94985.41;5095551;28;20038;-70
2022/05/15 00:58:41;;;;;;;7.05;5.03;;;;;;;14.20;68.42;94989.38;5095554;28;20040;-70
2022/05/15 01:01:06;;;;;;;6.35;4.57;;;;;;;14.19;68.83;94990.34;5110267;27;20527;-70
2022/05/15 01:03:32;;;;;;;5.18;4.40;;;;;;;14.15;68.64;94989.81;5126712;27;20027;-69
2022/05/15 01:05:57;;;;;;;5.97;4.30;;;;;;;14.10;68.75;94986.81;5131020;27;20465;-69
2022/05/15 01:08:23;;;;;;;6.28;4.50;;;;;;;14.03;68.32;94983.13;5132419;27;20095;-69
2022/05/15 01:10:51;;;;;;;5.20;4.60;;;;;;;14.00;68.90;94986.03;5119447;27;20069;-69
2022/05/15 01:13:17;;;;;;;5.00;4.30;;;;;;;13.95;68.31;94981.22;5095309;28;20512;-69
2022/05/15 01:15:42;;;;;;;5.60;4.22;;;;;;;13.91;68.66;94984.28;5113975;27;20028;-69
2022/05/15 01:18:08;;;;;;;6.13;4.38;;;;;;;13.90;68.67;94982.63;5130613;27;20066;-69
2022/05/15 01:20:34;;;;;;;5.53;4.40;;;;;;;13.87;68.10;94973.28;5128999;27;20107;-70
2022/05/15 01:22:59;;;;;;;8.60;5.20;;;;;;;13.84;67.68;94974.38;5103841;27;20118;-69
2022/05/15 01:25:28;;;;;;;5.90;4.80;;;;;;;13.88;67.11;94979.34;5130217;27;20110;-69
2022/05/15 01:28:05;;;;;;;6.35;4.80;;;;;;;13.84;67.71;94971.75;5113136;28;20078;-70
2022/05/15 01:30:31;;;;;;;5.45;4.10;;;;;;;13.80;68.25;94970.41;5098005;27;20411;-69
2022/05/15 01:32:56;;;;;;;8.02;4.88;;;;;;;13.74;67.96;94957.94;5099292;28;20035;-69
2022/05/15 01:35:22;;;;;;;6.97;4.70;;;;;;;13.88;67.25;94980.16;5125502;27;20031;-69
2022/05/15 01:37:47;;;;;;;6.00;4.50;;;;;;;13.82;68.13;94978.94;5111602;28;20046;-69
2022/05/15 01:40:13;;;;;;;6.95;5.10;;;;;;;13.77;68.02;94988.97;5112685;27;20039;-69
2022/05/15 01:42:39;;;;;;;6.38;4.72;;;;;;;13.78;68.35;94990.63;5113441;27;20032;-69
2022/05/15 01:45:05;;;;;;;6.63;4.78;;;;;;;13.78;67.87;94979.34;5113252;27;20027;-69
2022/05/15 01:47:30;;;;;;;4.28;3.88;;;;;;;13.73;67.46;94985.00;5116019;27;20399;-69
2022/05/15 01:49:56;;;;;;;7.28;4.35;;;;;;;13.73;67.18;94987.59;5095940;27;20042;-69
2022/05/15 01:52:21;;;;;;;7.85;4.70;;;;;;;13.68;67.45;94982.00;5133001;27;20035;-69
2022/05/15 01:54:47;;;;;;;6.65;4.50;;;;;;;13.69;67.73;94983.66;5117764;27;20019;-69
2022/05/15 01:57:12;;;;;;;4.85;4.43;;;;;;;13.71;67.52;94986.13;5111034;28;20039;-69
2022/05/15 01:59:38;;;;;;;5.60;4.63;;;;;;;13.69;67.30;94985.44;5094265;28;20023;-69
2022/05/15 02:02:05;;;;;;;5.75;4.10;;;;;;;13.65;67.78;94984.91;5123544;27;20042;-69
2022/05/15 02:04:30;;;;;;;6.88;4.40;;;;;;;13.64;66.77;94988.47;5132895;27;20029;-69
2022/05/15 02:06:55;;;;;;;4.38;3.97;;;;;;;13.67;66.44;94984.75;5129927;27;20035;-69
2022/05/15 02:09:21;;;;;;;6.70;3.72;;;;;;;13.64;66.49;94984.06;5122627;27;20111;-69
2022/05/15 02:11:47;;;;;;;6.05;4.07;;;;;;;13.67;66.85;94990.78;5125561;27;20030;-69
2022/05/15 02:14:12;;;;;;;6.15;4.07;;;;;;;13.57;66.40;94966.53;5113336;27;20031;-69
2022/05/15 02:16:38;;;;;;;4.50;3.90;;;;;;;13.66;66.66;94978.72;5127558;27;20053;-69
2022/05/15 02:19:03;;;;;;;4.28;3.83;;;;;;;13.66;67.46;94986.53;5111069;27;20138;-69
2022/05/15 02:21:30;;;;;;;6.30;4.00;;;;;;;13.62;66.83;94979.94;5131086;27;20476;-69
2022/05/15 02:23:57;;;;;;;7.30;4.03;;;;;;;13.64;65.93;94991.06;5131422;27;20159;-70
2022/05/15 02:26:23;;;;;;;5.47;4.10;;;;;;;13.57;66.91;94996.06;5122778;27;20028;-69
2022/05/15 02:28:48;;;;;;;6.18;4.00;;;;;;;13.50;67.11;94992.34;5127372;27;20123;-69
2022/05/15 02:31:14;;;;;;;4.82;4.28;;;;;;;13.53;67.30;94988.63;5113376;27;20020;-69
2022/05/15 02:33:39;;;;;;;4.65;3.70;;;;;;;13.53;66.06;95001.69;5112232;28;20496;-69
2022/05/15 02:36:05;;;;;;;6.15;3.95;;;;;;;13.56;66.00;95001.41;5116987;27;20027;-69
2022/05/15 02:38:30;;;;;;;4.60;4.20;;;;;;;13.58;65.76;94999.47;5131186;27;20246;-69
2022/05/15 02:40:56;;;;;;;6.35;3.85;;;;;;;13.55;65.02;94989.31;5126312;27;20498;-69
2022/05/15 02:43:21;;;;;;;5.57;4.00;;;;;;;13.60;65.60;95003.59;5122539;27;20027;-69
2022/05/15 02:45:47;;;;;;;5.55;3.58;;;;;;;13.62;64.90;95000.81;5113580;27;20027;-69
2022/05/15 02:51:05;;;;;;;5.57;4.10;;;;;;;13.56;64.71;95001.41;5115888;27;20039;-69
2022/05/15 02:53:38;;;;;;;5.15;3.75;;;;;;;13.54;65.62;94988.50;5111704;27;20043;-69
2022/05/15 02:56:12;;;;;;;4.93;4.00;;;;;;;13.64;65.27;95009.34;5112445;27;20032;-70
2022/05/15 02:58:37;;;;;;;6.03;3.60;;;;;;;13.66;64.48;95010.03;5110348;27;20054;-69
2022/05/15 03:01:03;;;;;;;7.65;4.00;;;;;;;13.69;64.86;95007.16;5110130;28;20031;-69
2022/05/15 03:03:28;;;;;;;5.10;4.10;;;;;;;13.69;64.96;95014.97;5127797;27;20031;-69
2022/05/15 03:05:54;;;;;;;6.15;3.88;;;;;;;13.62;66.02;95011.28;5130107;27;20031;-69
2022/05/15 03:08:19;;;;;;;5.38;3.75;;;;;;;13.50;66.47;95013.22;5128375;27;20035;-69
2022/05/15 03:10:45;;;;;;;5.75;3.80;;;;;;;13.47;65.89;95008.28;5112723;28;20528;-69
2022/05/15 03:13:10;;;;;;;5.50;3.65;;;;;;;13.53;65.99;95017.34;5111472;28;20023;-69
2022/05/15 03:15:36;;;;;;;6.90;3.60;;;;;;;13.48;64.62;95014.31;5118205;28;20035;-69
2022/05/15 03:18:02;;;;;;;4.68;3.85;;;;;;;13.54;65.29;95013.75;5102113;28;20066;-69
2022/05/15 03:20:27;;;;;;;5.75;4.05;;;;;;;13.51;65.83;95014.88;5111196;28;20028;-69
2022/05/15 03:22:56;;;;;;;11.32;5.13;;;;;;;13.56;65.17;95017.06;5112339;28;20641;-69
2022/05/15 03:25:22;;;;;;;4.65;3.85;;;;;;;13.55;65.15;95020.66;5123015;27;20033;-69
2022/05/15 03:27:47;;;;;;;6.55;4.32;;;;;;;13.52;65.59;95028.75;5122659;27;20031;-69
2022/05/15 03:30:13;;;;;;;6.93;4.18;;;;;;;13.51;65.19;95034.91;5101047;28;20038;-69
2022/05/15 03:32:39;;;;;;;4.82;4.15;;;;;;;13.47;65.51;95023.13;5133920;27;20183;-69
2022/05/15 03:35:05;;;;;;;6.10;3.60;;;;;;;13.48;64.92;95030.78;5101975;28;20485;-69
2022/05/15 03:37:31;;;;;;;5.28;3.65;;;;;;;13.45;64.74;95020.63;5101083;28;20074;-69
2022/05/15 03:39:56;;;;;;;8.38;3.85;;;;;;;13.50;64.94;95026.28;5131006;27;20056;-69
2022/05/15 03:42:24;;;;;;;4.85;3.67;;;;;;;13.60;65.04;95028.88;5113935;28;20039;-69
2022/05/15 03:44:50;;;;;;;5.25;3.40;;;;;;;13.61;64.85;95033.94;5113864;28;20052;-69
2022/05/15 03:47:16;;;;;;;3.97;3.58;;;;;;;13.63;64.50;95024.19;5130227;27;20146;-69
2022/05/15 03:49:41;;;;;;;4.10;3.70;;;;;;;13.66;63.77;95033.53;5121406;27;20412;-69
2022/05/15 03:52:07;;;;;;;4.97;3.40;;;;;;;13.64;63.50;95028.44;5129336;27;20492;-69
2022/05/15 03:54:32;;;;;;;5.65;3.28;;;;;;;13.69;63.72;95028.03;5117492;27;20027;-69
2022/05/15 03:56:58;;;;;;;5.50;3.75;;;;;;;13.78;63.89;95031.56;5108973;27;20064;-69
2022/05/15 03:59:26;;;;;;;5.32;3.25;;;;;;;13.70;63.22;95006.16;5109154;28;20035;-69
2022/05/15 04:01:52;;;;;;;4.50;3.42;;;;;;;13.88;63.64;95032.38;5123438;27;20092;-69
2022/05/15 04:04:17;;;;;;;3.85;3.25;;;;;;;13.97;63.04;95023.69;5114498;27;20504;-69
2022/05/15 04:06:43;;;;;;;5.47;3.50;;;;;;;14.13;62.47;95032.72;5088584;28;20046;-69
2022/05/15 04:09:08;;;;;;;6.10;3.25;;;;;;;14.35;62.85;95026.28;5114217;27;20027;-69
2022/05/15 04:11:33;;;;;;;5.60;3.53;;;;;;;14.68;61.31;95036.19;5131337;27;20027;-69
2022/05/15 04:13:59;;;;;;;5.60;3.50;;;;;;;15.29;59.78;95033.84;5134100;27;20035;-69
2022/05/15 04:16:24;;;;;;;3.30;3.00;;;;;;;15.97;58.82;95033.22;5133491;27;20031;-69
2022/05/15 04:18:50;;;;;;;5.55;3.35;;;;;;;16.57;56.20;95040.22;5123726;27;20059;-69
2022/05/15 04:21:15;;;;;;;4.90;2.80;;;;;;;16.95;54.97;95034.47;5114346;27;20139;-69
2022/05/15 04:23:41;;;;;;;3.40;2.90;;;;;;;17.23;54.39;95021.06;5113046;28;20092;-69
2022/05/15 04:26:06;;;;;;;4.00;3.10;;;;;;;17.63;53.74;95036.03;5115205;27;20516;-69
2022/05/15 04:28:32;;;;;;;5.32;3.20;;;;;;;18.02;53.29;95047.66;5095923;27;20042;-69
2022/05/15 04:30:57;;;;;;;6.72;2.80;;;;;;;18.22;51.58;95043.69;5113000;28;20504;-71
2022/05/15 04:33:23;;;;;;;4.28;2.58;;;;;;;18.52;51.10;95033.38;5114564;28;20469;-70
2022/05/15 04:35:48;;;;;;;3.83;2.80;;;;;;;18.70;50.26;95044.50;5116840;27;20019;-69
2022/05/15 04:38:13;;;;;;;7.22;2.85;;;;;;;18.77;50.43;95042.03;5120279;27;20050;-70
2022/05/15 04:40:39;;;;;;;4.18;3.00;;;;;;;18.95;51.45;95052.31;5115117;27;20572;-70
2022/05/15 04:43:04;;;;;;;5.78;3.08;;;;;;;18.88;51.99;95048.72;5123228;27;20035;-69
2022/05/15 04:45:30;;;;;;;3.53;2.53;;;;;;;18.83;52.66;95049.22;5129123;27;20027;-70
2022/05/15 04:47:55;;;;;;;5.57;3.10;;;;;;;18.54;53.22;95045.38;5112592;28;20042;-70
2022/05/15 04:50:21;;;;;;;4.97;3.05;;;;;;;18.36;54.70;95041.31;5112623;27;20508;-70
2022/05/15 04:52:46;;;;;;;5.60;2.80;;;;;;;18.24;55.43;95054.84;5095728;28;20486;-69
2022/05/15 04:55:12;;;;;;;7.18;3.67;;;;;;;18.03;54.92;95059.81;5114713;27;20028;-71
2022/05/15 04:57:38;;;;;;;5.20;4.00;;;;;;;18.04;54.66;95064.09;5127535;27;20042;-70
2022/05/15 05:00:05;;;;;;;7.50;5.88;;;;;;;17.75;54.65;95061.97;5133652;27;20035;-70
2022/05/15 05:02:30;;;;;;;7.57;5.60;;;;;;;17.71;54.42;95058.00;5112345;28;20076;-70
2022/05/15 05:04:59;;;;;;;9.43;5.43;;;;;;;17.72;55.00;95065.75;5113394;27;20368;-69
2022/05/15 05:07:25;;;;;;;9.40;5.22;;;;;;;17.63;55.24;95067.53;5117546;27;20031;-70
2022/05/15 05:09:51;;;;;;;10.02;4.70;;;;;;;17.71;56.31;95055.38;5130805;27;20058;-70
2022/05/15 05:12:16;;;;;;;4.97;4.10;;;;;;;17.82;56.90;95047.19;5132029;27;20047;-69
2022/05/15 05:14:42;;;;;;;10.80;5.72;;;;;;;17.86;56.34;95044.06;5099803;28;20035;-70
2022/05/15 05:17:07;;;;;;;9.48;5.43;;;;;;;17.97;55.58;95052.59;5122933;27;20046;-70
2022/05/15 05:19:33;;;;;;;6.97;5.40;;;;;;;18.03;54.81;95054.56;5111985;27;20429;-70
2022/05/15 05:21:58;;;;;;;7.90;5.93;;;;;;;18.18;55.47;95047.63;5108248;27;20182;-70
2022/05/15 05:24:24;;;;;;;7.18;5.57;;;;;;;18.36;54.42;95052.69;5108039;28;20054;-70
2022/05/15 05:26:49;;;;;;;6.20;3.90;;;;;;;18.48;56.55;95056.59;5106763;27;20468;-70
2022/05/15 05:29:14;;;;;;;5.97;4.38;;;;;;;18.63;55.94;95053.22;5126704;27;20084;-70
2022/05/15 05:31:40;;;;;;;7.28;4.15;;;;;;;18.78;55.06;95059.47;5111934;28;20045;-70
2022/05/15 05:34:05;;;;;;;6.50;3.70;;;;;;;18.95;54.12;95055.75;5086193;28;20027;-70
2022/05/15 05:36:31;;;;;;;4.03;3.00;;;;;;;19.02;53.87;95049.78;5110345;28;20424;-70
2022/05/15 05:38:58;;;;;;;3.95;2.95;;;;;;;19.20;53.22;95059.06;5108361;28;20050;-70
2022/05/15 05:41:23;;;;;;;5.18;2.78;;;;;;;19.39;52.48;95054.34;5110648;28;20024;-70
2022/05/15 05:43:48;;;;;;;5.57;3.42;;;;;;;19.56;49.35;95047.97;5111450;28;20093;-70
2022/05/15 05:46:14;;;;;;;7.07;3.28;;;;;;;19.67;48.30;95059.09;5119736;27;20023;-70
2022/05/15 05:48:45;;;;;;;4.75;3.20;;;;;;;19.60;51.15;95037.88;5130522;27;20413;-70
2022/05/15 05:51:14;;;;;;;3.65;2.65;;;;;;;19.80;50.54;95051.41;5130281;27;20034;-74
2022/05/15 05:53:39;;;;;;;5.35;3.03;;;;;;;19.92;49.28;95051.78;5128647;27;20031;-70
2022/05/15 05:56:05;;;;;;;8.70;4.50;;;;;;;20.01;49.63;95051.56;5116402;27;20019;-70
2022/05/15 05:58:31;;;;;;;6.95;4.95;;;;;;;20.01;49.53;95056.00;5131724;27;20043;-70
2022/05/15 06:00:56;;;;;;;7.15;5.18;;;;;;;20.08;50.30;95049.81;5131158;27;20023;-70
2022/05/15 06:06:05;;;;;;;5.70;3.60;;;;;;;20.16;48.61;95051.56;5116033;27;20065;-70
2022/05/15 06:08:31;;;;;;;5.55;3.70;;;;;;;20.28;47.22;95052.78;5130988;27;20035;-70
2022/05/15 06:10:57;;;;;;;5.35;3.40;;;;;;;20.39;48.23;95053.31;5129998;27;20504;-70
2022/05/15 06:13:22;;;;;;;11.13;4.45;;;;;;;20.45;46.94;95044.69;5115640;27;20483;-70
2022/05/15 06:15:48;;;;;;;8.95;3.97;;;;;;;20.49;47.37;95048.59;5095659;28;20542;-70
2022/05/15 06:18:13;;;;;;;6.00;3.97;;;;;;;20.47;46.98;95045.31;5125866;27;20080;-70
2022/05/15 06:20:39;;;;;;;6.03;3.92;;;;;;;20.46;47.89;95051.59;5132920;27;20084;-70
2022/05/15 06:23:04;;;;;;;5.75;4.32;;;;;;;20.59;48.01;95050.97;5132829;27;20028;-70
2022/05/15 06:25:30;;;;;;;8.57;4.18;;;;;;;20.72;47.67;95044.03;5114266;27;20027;-70
2022/05/15 06:27:55;;;;;;;7.47;4.45;;;;;;;20.82;47.03;95038.50;5131176;27;20080;-70
2022/05/15 06:30:21;;;;;;;5.80;4.10;;;;;;;20.92;46.83;95039.03;5132511;27;20031;-70
2022/05/15 06:32:46;;;;;;;9.48;4.28;;;;;;;21.11;46.21;95042.06;5128269;27;20023;-69
2022/05/15 06:35:13;;;;;;;6.45;4.18;;;;;;;21.24;46.54;95042.22;5093726;28;20039;-70
2022/05/15 06:37:38;;;;;;;6.35;4.15;;;;;;;21.37;46.77;95042.38;5110776;28;20031;-70
2022/05/15 06:40:05;;;;;;;7.05;4.43;;;;;;;21.58;45.81;95048.66;5117827;27;20019;-75
2022/05/15 06:42:30;;;;;;;11.68;5.00;;;;;;;21.68;46.51;95046.53;5092649;27;20031;-70
2022/05/15 06:44:56;;;;;;;8.68;4.55;;;;;;;21.66;46.92;95056.47;5113499;27;20504;-71
2022/05/15 06:47:23;;;;;;;8.00;4.90;;;;;;;21.78;46.08;95054.13;5121526;27;20454;-70
2022/05/15 06:49:49;;;;;;;6.53;5.05;;;;;;;21.77;45.95;95040.09;5127460;27;20027;-69
2022/05/15 06:52:14;;;;;;;8.20;4.85;;;;;;;21.89;45.87;95058.09;5129138;27;20080;-71
2022/05/15 06:54:39;;;;;;;7.32;5.70;;;;;;;21.78;45.92;95049.66;5128299;27;20069;-70
2022/05/15 06:59:49;;;;;;;8.70;5.25;;;;;;;21.58;46.87;95046.84;5117616;27;20161;-70
2022/05/15 07:02:14;;;;;;;10.93;5.13;;;;;;;21.62;46.32;95053.41;5120903;27;20449;-70
2022/05/15 07:04:39;;;;;;;6.57;4.97;;;;;;;21.76;46.43;95050.88;5139210;27;20087;-70
2022/05/15 07:07:05;;;;;;;7.68;5.60;;;;;;;21.83;44.25;95043.81;5129401;27;20477;-70
2022/05/15 07:09:31;;;;;;;8.07;4.63;;;;;;;21.83;43.90;95041.16;5129350;27;20049;-70
2022/05/15 07:11:56;;;;;;;6.47;4.57;;;;;;;22.01;44.66;95048.63;5128575;27;20035;-70
2022/05/15 07:14:22;;;;;;;11.38;4.72;;;;;;;21.95;44.20;95044.09;5129478;28;20022;-70
2022/05/15 07:16:47;;;;;;;6.03;4.22;;;;;;;21.77;43.67;95048.03;5115954;28;20031;-70
2022/05/15 07:19:13;;;;;;;11.02;4.43;;;;;;;21.66;44.97;95051.19;5112170;28;20266;-70
2022/05/15 07:21:39;;;;;;;7.32;4.30;;;;;;;21.69;45.08;95053.44;5111487;27;20044;-70
2022/05/15 07:24:05;;;;;;;10.15;4.15;;;;;;;21.74;44.84;95053.69;5108901;28;20046;-69
2022/05/15 07:26:31;;;;;;;6.43;3.25;;;;;;;21.79;42.22;95055.78;5109126;28;20454;-70
2022/05/15 07:28:56;;;;;;;5.45;2.50;;;;;;;21.92;40.60;95047.13;5116082;28;20046;-70
2022/05/15 07:31:22;;;;;;;5.20;2.17;;;;;;;22.00;38.90;95042.50;5110495;27;20066;-70
2022/05/15 07:33:49;;;;;;;4.78;2.08;;;;;;;22.23;37.57;95058.19;5111142;28;20080;-70
2022/05/15 07:36:15;;;;;;;3.92;2.30;;;;;;;22.27;38.21;95048.84;5112724;28;20031;-70
2022/05/15 07:38:40;;;;;;;5.00;2.28;;;;;;;22.46;39.37;95057.09;5129104;28;20397;-70
2022/05/15 07:41:05;;;;;;;3.42;2.00;;;;;;;22.63;38.88;95052.31;5094034;28;20123;-70
2022/05/15 07:43:31;;;;;;;3.83;2.53;;;;;;;22.80;38.25;95039.56;5109720;27;20035;-70
2022/05/15 07:45:56;;;;;;;3.45;2.30;;;;;;;23.08;37.85;95050.09;5110508;28;20027;-71
2022/05/15 07:48:22;;;;;;;3.38;2.53;;;;;;;23.17;37.79;95047.06;5109133;27;20247;-70
2022/05/15 07:50:48;;;;;;;4.05;2.40;;;;;;;23.17;37.77;95041.75;5109178;28;20057;-70
2022/05/15 07:53:14;;;;;;;6.65;2.40;;;;;;;23.18;38.19;95045.25;5109883;28;20066;-70
2022/05/15 07:55:40;;;;;;;6.97;2.45;;;;;;;23.07;37.69;95041.34;5108849;28;20481;-71
2022/05/15 07:58:05;;;;;;;5.05;2.65;;;;;;;23.12;37.71;95048.66;5092466;28;20082;-70
2022/05/15 08:00:30;;;;;;;3.30;2.50;;;;;;;23.13;39.15;95061.72;5113750;28;20054;-70
2022/05/15 08:03:04;;;;;;;5.75;2.10;;;;;;;22.88;37.83;95063.22;5130114;27;20503;-70
2022/05/15 08:08:13;;;;;;;2.72;2.13;;;;;;;22.75;37.08;95053.38;5095915;28;20092;-70
2022/05/15 08:10:44;;;;;;;4.05;2.10;;;;;;;22.83;37.14;95063.00;5110278;28;20032;-70
2022/05/15 08:13:10;;;;;;;5.00;2.08;;;;;;;22.84;37.30;95070.72;5112974;27;20089;-71
2022/05/15 08:15:36;;;;;;;7.53;2.30;;;;;;;22.82;37.69;95066.66;5114648;27;20110;-71
2022/05/15 08:23:37;;;;;;;4.32;2.00;;;;;;;22.72;36.63;95078.41;5115505;27;20087;-71
2022/05/15 08:26:06;;;;;;;4.55;2.42;;;;;;;22.78;37.21;95081.31;5129979;27;20517;-71
2022/05/15 08:28:33;;;;;;;2.88;2.00;;;;;;;22.83;36.26;95086.84;5112364;28;20038;-71
2022/05/15 08:30:58;;;;;;;4.30;2.10;;;;;;;22.75;35.75;95072.72;5112199;28;20061;-70
2022/05/15 08:33:23;;;;;;;4.40;2.08;;;;;;;22.71;35.84;95081.28;5112703;27;20027;-71
2022/05/15 08:35:49;;;;;;;3.97;2.08;;;;;;;22.77;35.83;95083.13;5111352;28;20481;-68
2022/05/15 08:38:15;;;;;;;7.22;2.20;;;;;;;22.79;36.54;95078.47;5127547;27;20019;-72
2022/05/15 08:40:48;;;;;;;3.45;2.08;;;;;;;22.96;35.71;95085.09;5132994;27;20035;-71
2022/05/15 08:43:15;;;;;;;5.35;2.20;;;;;;;23.04;35.14;95080.63;5125526;27;20032;-71
2022/05/15 08:45:42;;;;;;;3.13;1.70;;;;;;;23.13;34.69;95077.63;5095373;28;20028;-71
2022/05/15 08:48:12;;;;;;;4.45;2.00;;;;;;;23.08;34.19;95081.88;5129912;27;20568;-71
2022/05/15 08:50:41;;;;;;;4.40;1.90;;;;;;;23.08;34.77;95081.88;5103093;28;20027;-71
2022/05/15 08:53:08;;;;;;;3.47;2.00;;;;;;;23.14;35.19;95078.44;5095213;28;20027;-71
2022/05/15 08:55:44;;;;;;;3.33;1.70;;;;;;;23.26;33.57;95086.63;5093317;27;20043;-72
2022/05/15 08:58:13;;;;;;;4.03;1.80;;;;;;;23.40;35.09;95090.94;5132254;27;20056;-71
2022/05/15 09:00:41;;;;;;;3.38;2.00;;;;;;;23.54;34.83;95082.03;5127588;27;20512;-71
2022/05/15 09:03:19;;;;;;;4.93;1.83;;;;;;;23.57;33.73;95086.94;5116134;27;20046;-71
2022/05/15 09:06:22;;;;;;;4.65;1.75;;;;;;;23.59;32.36;95079.56;5112944;27;20047;-71
2022/05/15 09:09:25;;;;;;;3.40;1.90;;;;;;;23.60;32.71;95081.22;5116955;27;20035;-71
2022/05/15 09:11:54;;;;;;;4.38;2.00;;;;;;;23.61;33.06;95087.34;5110265;28;20063;-71
2022/05/15 09:14:31;;;;;;;3.22;1.67;;;;;;;23.66;32.97;95090.22;5123436;27;20038;-71
2022/05/15 09:17:00;;;;;;;4.20;1.92;;;;;;;23.69;32.10;95087.16;5131757;27;20042;-71
2022/05/15 09:19:25;;;;;;;3.95;1.73;;;;;;;23.69;31.47;95079.19;5114669;27;20319;-71
2022/05/15 09:21:54;;;;;;;4.57;1.90;;;;;;;23.81;31.74;95069.63;5131592;27;20023;-71
2022/05/15 09:24:36;;;;;;;6.40;1.80;;;;;;;23.75;31.09;95080.25;5097600;27;20500;-71
2022/05/15 09:27:12;;;;;;;5.35;1.40;;;;;;;23.69;31.60;95073.06;5080752;28;20039;-71
2022/05/15 09:29:38;;;;;;;4.13;1.70;;;;;;;23.76;32.35;95073.91;5111114;28;20566;-71
2022/05/15 09:32:06;;;;;;;3.50;1.70;;;;;;;23.90;32.62;95067.59;5094160;28;20027;-71
2022/05/15 09:34:33;;;;;;;4.00;1.85;;;;;;;24.02;33.25;95067.84;5093737;28;20176;-71
2022/05/15 09:39:48;;;;;;;2.92;1.38;;;;;;;24.22;31.56;95060.66;5096730;28;20054;-71
2022/05/15 09:45:19;;;;;;;4.95;1.38;;;;;;;24.48;30.01;95061.69;5111540;28;20113;-68
2022/05/15 09:47:50;;;;;;;2.42;1.65;;;;;;;24.57;29.18;95071.03;5111176;27;20066;-69
2022/05/15 09:50:47;;;;;;;5.20;1.75;;;;;;;24.51;27.79;95048.78;5112968;27;20063;-69
2022/05/15 09:53:23;;;;;;;3.10;1.40;;;;;;;24.59;28.75;95063.69;5111130;27;20115;-68
2022/05/15 09:56:03;;;;;;;4.00;1.30;;;;;;;24.45;28.05;95048.81;5128668;27;20031;-69
2022/05/15 09:58:39;;;;;;;3.40;1.50;;;;;;;24.33;28.11;95061.88;5131932;27;20079;-71
2022/05/15 10:01:23;;;;;;;3.30;1.40;;;;;;;24.11;28.25;95057.81;5109538;28;20039;-71
2022/05/15 10:03:50;;;;;;;3.03;1.40;;;;;;;24.07;29.44;95055.59;5112456;28;20129;-71
2022/05/15 10:06:19;;;;;;;4.30;1.45;;;;;;;24.08;29.76;95037.81;5100542;27;20527;-71
2022/05/15 10:08:45;;;;;;;2.45;1.40;;;;;;;24.04;29.30;95050.69;5094716;28;20044;-71
2022/05/15 10:11:18;;;;;;;5.90;2.00;;;;;;;24.00;30.63;95044.16;5097394;28;20036;-71
2022/05/15 10:13:50;;;;;;;5.90;1.83;;;;;;;23.96;29.54;95042.94;5111236;28;20504;-71
2022/05/15 10:16:26;;;;;;;4.55;1.40;;;;;;;24.04;28.76;95041.88;5111141;28;20468;-71
2022/05/15 10:19:04;;;;;;;2.15;1.30;;;;;;;24.12;30.32;95047.00;5094275;27;20051;-71
2022/05/15 10:21:43;;;;;;;3.67;1.58;;;;;;;23.97;28.88;95049.84;5126279;27;20056;-72
2022/05/15 10:24:33;;;;;;;4.70;1.95;;;;;;;23.95;30.11;95051.91;5097545;28;20039;-71
2022/05/15 10:27:05;;;;;;;3.55;1.50;;;;;;;24.03;30.67;95053.53;5096001;27;20394;-69
2022/05/15 10:29:56;;;;;;;2.63;1.45;;;;;;;24.09;29.99;95044.75;5103978;27;20117;-69
2022/05/15 10:32:33;;;;;;;4.28;1.48;;;;;;;24.20;29.66;95038.81;5121840;27;20139;-69
2022/05/15 10:34:58;;;;;;;3.78;1.48;;;;;;;24.18;29.66;95037.38;5122330;27;20062;-69
2022/05/15 10:37:42;;;;;;;3.85;1.30;;;;;;;24.23;28.38;95048.22;5093746;28;20032;-69
2022/05/15 10:40:19;;;;;;;3.00;1.50;;;;;;;24.19;28.22;95041.69;5115556;27;20044;-71
2022/05/15 10:43:22;;;;;;;3.78;1.65;;;;;;;24.29;28.83;95044.72;5111241;27;20402;-72
2022/05/15 10:46:20;;;;;;;4.25;1.30;;;;;;;24.34;28.42;95033.50;5108252;28;20039;-71
2022/05/15 10:49:10;;;;;;;3.80;1.50;;;;;;;24.39;28.74;95037.16;5094214;28;20035;-71
2022/05/15 10:51:48;;;;;;;3.63;1.33;;;;;;;24.52;30.22;95029.22;5109483;28;20475;-72
2022/05/15 10:57:26;;;;;;;3.95;1.60;;;;;;;24.50;29.38;95025.13;5108909;28;20078;-72
2022/05/15 10:59:55;;;;;;;3.85;1.40;;;;;;;24.50;28.14;95031.25;5111676;28;20085;-72
2022/05/15 11:02:20;;;;;;;2.50;1.30;;;;;;;24.42;28.63;95034.09;5111518;28;20055;-71
2022/05/15 11:04:52;;;;;;;3.58;1.50;;;;;;;24.43;28.54;95026.94;5111442;28;20019;-72
2022/05/15 11:07:46;;;;;;;5.47;1.60;;;;;;;24.48;27.81;95032.47;5110213;28;20032;-72
2022/05/15 11:10:23;;;;;;;2.63;1.15;;;;;;;24.53;27.68;95027.34;5109061;28;20035;-72
2022/05/15 11:13:11;;;;;;;4.15;1.70;;;;;;;24.56;27.30;95031.44;5094323;28;20067;-72
2022/05/15 11:16:01;;;;;;;2.35;1.30;;;;;;;24.50;25.95;95028.59;5111344;28;20027;-72
2022/05/15 11:19:03;;;;;;;3.97;1.20;;;;;;;24.36;26.55;95020.84;5109990;28;20044;-72
2022/05/15 11:21:35;;;;;;;4.63;1.58;;;;;;;24.45;28.81;95024.94;5094419;28;20027;-72
2022/05/15 11:24:26;;;;;;;4.22;1.60;;;;;;;24.43;28.35;95011.88;5110045;28;20444;-72
2022/05/15 11:26:54;;;;;;;2.65;1.40;;;;;;;24.43;28.94;95000.38;5109763;28;20055;-72
2022/05/15 11:29:19;;;;;;;3.03;1.38;;;;;;;24.41;29.63;95013.88;5092970;28;20446;-72
2022/05/15 11:31:55;;;;;;;5.28;1.40;;;;;;;24.46;29.89;95000.84;5092965;28;20030;-72
2022/05/15 11:34:21;;;;;;;2.95;1.77;;;;;;;24.48;29.75;95006.72;5110190;28;20028;-71
2022/05/15 11:36:48;;;;;;;2.75;1.40;;;;;;;24.49;28.87;94996.97;5093182;28;20035;-72
2022/05/15 11:39:13;;;;;;;4.00;1.67;;;;;;;24.57;29.24;94993.22;5109893;28;20027;-72
2022/05/15 11:41:39;;;;;;;3.42;1.42;;;;;;;24.68;29.30;94997.88;5111043;28;20079;-72
2022/05/15 11:44:13;;;;;;;2.92;1.42;;;;;;;24.76;28.67;94992.34;5109709;28;20084;-72
2022/05/15 11:46:44;;;;;;;5.72;1.40;;;;;;;24.79;29.29;94989.25;5113292;28;20020;-72
2022/05/15 11:49:30;;;;;;;3.40;1.40;;;;;;;24.76;29.27;94989.69;5115213;28;20503;-72
2022/05/15 11:52:18;;;;;;;4.40;1.73;;;;;;;24.72;30.17;94989.31;5099389;28;20035;-72
2022/05/15 11:54:45;;;;;;;2.88;1.63;;;;;;;24.75;30.64;94988.06;5113802;28;20102;-72
2022/05/15 11:57:34;;;;;;;2.00;1.30;;;;;;;24.85;30.14;94985.78;5096804;28;20147;-72
2022/05/15 12:00:00;;;;;;;3.42;1.50;;;;;;;24.77;30.34;94970.09;5096643;28;20524;-72
2022/05/15 12:02:29;;;;;;;2.67;1.60;;;;;;;24.84;30.00;94986.00;5096648;28;20027;-72
2022/05/15 12:05:01;;;;;;;4.07;1.63;;;;;;;24.86;30.17;94984.75;5114727;28;20023;-72
2022/05/15 12:07:56;;;;;;;3.78;1.60;;;;;;;24.95;30.01;94991.44;5114828;28;20055;-72